Airfield :
LOGIN :

Register | Disclaimer

   EN    FR    IT 

 










Legend :    VFR   Marginal VFR   IFR   Intensive IFR   Very Intensive IFR
Visi :
Ceiling :
>= 8 km
>= 3000ft
5 to 8 km
1000 to 3000 ft
1500m to 5 km
500 to 1000 ft
800 to 1500m
200 to 500 ft
< 800m
< 200 ft
Symbols :   Thunderstorms  Fog  Heavy snow  Heavy precipitations  Wind > 20 kt
SIGMETs :     Misc.  Thunderstorms  Icing  Turbulence  Mountain Waves  Volcanic Ashes







- Airport Elevation : 106 ft
- IATA code : NRN


EDLV - Weeze

CURRENT METAR :
  • 251920Z 28007KT 250V320 CAVOK 12/05 Q1012

EXPIRED METARs :
  • 251850Z 26009KT CAVOK 13/04 Q1012
  • 251820Z 26009KT CAVOK 13/05 Q1011
  • 251750Z 26009KT CAVOK 14/04 Q1011
  • 251720Z 25013KT 230V290 CAVOK 14/04 Q1011
  • 251650Z 27010KT 240V340 CAVOK 14/03 Q1011

TAF TAF EDLV
Valid from the 25 at 18:00 until the 26 at 18:00 UTC


251700Z 2518/2618 25010KT 9999 SCT030
TEMPO 2600/2610 27015G25KT SHRA BKN015TCU
PROB30
TEMPO 2603/2608 TS BKN010CB
BECMG 2608/2611 25015G25KT
BECMG 2616/2618 23008KT
No reported NOTAMs for that airfield.



MET'MAP, your aeronautical weather chart ! - Copyright ORBIFLY December 2007 - Disclaimer

ORBIFLY MET'MAP TEAM :

Programming & Development : Alexandra Zaïnal
Concept & Development : Baudouin d'Aumeries
Co-Development & Prog : Marc-Olivier Méhu
Technical & hardware support : Manuel Goepfert

Contact : metmap@orbifly.com




SOURCES & CREDITS :

   NOAA